Scroll down
FLIGHT INFORMATION
United Parcel Service (UPS)

UPS16

At Arrival Gate

OMDB
 RKSI
DATE: 2020-08-29
GATE:  -
GATE DEPARTURE: 11:45
TAKEOFF: 12:01
DATE: 2020-08-29
GATE:  -
LANDING: 21:36
GATE ARRIVAL: 21:46
FLIGHT DATA
Crew: 
Speed: 
531 kts
Altitude: 
37,005 ft
Stage Length: 
3,632.7 nm
Block Time: 
10 hrs
Flight Time: 
9.6 hrs
Fuel Used: 
248,314 lb
Cleared Route: OMDB IVURO SUTVO GOMTA TARBO MUNGA MIXOL VAXIM RASKI ANKOX KARKU EXOLU POSIN GIVEK PAPVO KAMLO ATMUV NITAG PALMU DADSO SEBMA JJS CEA SUMAG DAKID CTG CHILA 54LSO LSO LINSO GMA MAKUL GULOT IDPUG XSJ IGRID LXI ADBAG MEPAN BSE DUDIT LBN ATLAT BIPOP AVPAM GYA POU CON NOLON WYN NNX PLT SAGON NF XUVGI SHR TUPGA ELNEX TOL KAKIS NXD LURMA OLGAP JTN PUD IPRAG DUMET AKARA LAMEN SADLI PONIK NIRAT SAMLO SOSDO CJU LOSNI GUKSU KAMIT SAMUL MAKSA ATASO PEBRI GUNKU OLMEN RKSI
TRACK DATA
50,000 ft 1,000 kts
AIRCRAFT INFO AND CUMULATIVE STATS
Aircraft Type: 
B744F
Registration: 
SELCAL: 
BKMQ
MSN/LN: 
35667 / 1388
Total Flights: 
15
Total Block Time: 
97 hrs
Total Flight Time: 
92.9 hrs
Total Fuel Used: 
2,073,611 lb
DATALINK LOG | Newest first | Current as of: 2022-09-28 21:48:36
LABEL SEQUENCE CONTENT Dn/Up
5Z491429 AUG 20 21:48:17z / FLT DECK GOOD / ACF POS GOOD / GRND SERVICES GOOD / MAINT GOOD▼ Dn
QD461221:46 36.6▼ Dn
QC370521:36▼ Dn
2U3108RKSI 292100Z 25004KT 5000 BR BKN002 BKN020 24/22 Q1010 NOSIG▲ Up
2S3201RKSI▼ Dn
GA5530ADVANCED GATE ASSIGNMENTS NOT YET AVAILABLE AT THIS AIRPORT▲ Up
GR5530RKSI 21:35 MAAS YP/UM WCHR/S/C HI-VAL NO DIPL/VIP NO▼ Dn
2U4744RKSI 292030Z 24006KT 5000 BR BKN001 BKN020 25/22 Q1010 NOSIG▲ Up
2S4722RKSI▼ Dn
5U2541RKSI 300024Z 30006KT 6000 BKN004 BKN025 OVC100 25/22 Q1010▲ Up
5S2503RKSI▼ Dn
UM740052PROCEED DIRECT TO PUD▲ Up
DM220042REQUEST DIRECT TO PUD▼ Dn
UM740767PROCEED DIRECT TO SAGON▲ Up
DM220757REQUEST DIRECT TO SAGON▼ Dn
UM202430CLEARED TO FL 351▲ Up
DM62420REQUEST FL 351▼ Dn
UM201220CLEARED TO FL 331▲ Up
DM61210REQUEST FL 331▼ Dn
UM203163CLEARED TO FL 330▲ Up
DM63153REQUEST FL 330 DUE TO A/C PERF▼ Dn
UM64 UM694632OFFSET 050 NM RIGHT OF ROUTE. REJOIN ROUTE BY 09 MINUTES PAST THE HOUR▲ Up
DM154622REQUEST OFFSET 050 NM RIGHT OF ROUTE▼ Dn
UM64 UM694228OFFSET 040 NM RIGHT OF ROUTE. REJOIN ROUTE BY 58 MINUTES PAST THE HOUR▲ Up
DM154218REQUEST OFFSET 040 NM RIGHT OF ROUTE▼ Dn
UM64 UM694026OFFSET 025 NM RIGHT OF ROUTE. REJOIN ROUTE BY 02 MINUTES PAST THE HOUR▲ Up
DM154016REQUEST OFFSET 025 NM RIGHT OF ROUTE▼ Dn
462604/OV XXX /TM 1325 /FL310 /TP B744 /SK SCT /TA -27 /RM THUNDERSTORMS▼ Dn
UM64 UM691364OFFSET 095 NM LEFT OF ROUTE. REJOIN ROUTE BY 28 MINUTES PAST THE HOUR▲ Up
DM151354REQUEST OFFSET 095 NM LEFT OF ROUTE▼ Dn
UM64 UM690759OFFSET 080 NM LEFT OF ROUTE. REJOIN ROUTE BY 27 MINUTES PAST THE HOUR▲ Up
DM150749REQUEST OFFSET 080 NM LEFT OF ROUTE▼ Dn
UM64 UM690154OFFSET 050 NM LEFT OF ROUTE. REJOIN ROUTE BY 29 MINUTES PAST THE HOUR▲ Up
DM150144REQUEST OFFSET 050 NM LEFT OF ROUTE▼ Dn
UM64 UM695851OFFSET 025 NM LEFT OF ROUTE. REJOIN ROUTE BY 15 MINUTES PAST THE HOUR▲ Up
DM155841REQUEST OFFSET 025 NM LEFT OF ROUTE▼ Dn
UM64 UM695650OFFSET 010 NM LEFT OF ROUTE. REJOIN ROUTE BY 15 MINUTES PAST THE HOUR▲ Up
DM155639REQUEST OFFSET 010 NM LEFT OF ROUTE▼ Dn
UM205247CLEARED TO FL 310▲ Up
DM65236REQUEST FL 310 DUE TO A/C PERF▼ Dn
QB015312:01▼ Dn
QA453911:45 285.1▼ Dn
5Z322629 AUG 20 11:32:09z / FLT DECK GOOD / ACF POS GOOD / GRND SERVICES GOOD / MAINT GOOD▼ Dn
5U2905RKSI 291524Z 19005KT 4000 -RA BKN006 BKN025 OVC100 26/23 Q1009▲ Up
5S2923RKSI▼ Dn
2U2500RKSI 291100Z 21003KT 170V250 9999 FEW016 SCT030 BKN070 26/23 Q1009 NOSIG▲ Up
2U2500OMDB 291100Z 34013KT CAVOK 41/21 Q0998 NOSIG▲ Up
2S2519OMDB RKSI▼ Dn
A32125CLEARED TO RKSI VIA IVUR1F IVURO M428 MUNGA A777 VAXIM L301 KARKU M638 EXOLU POSIN Q19 CEA B465 CTG A599 GULOT W146 XSJ W148 LXI A599 POU R473 NNX A599 PUD A593 NIRAT Y722 OLMEN OLME1P. SQUAWK .▲ Up
B32115OMDB RKSI UPS16 N570UP ▼ Dn
Q00802[LINK ACK]▲ Up
Q00802[LINK TEST]▼ Dn


AIRCRAFT HISTORY
FLIGHT DATE FLIGHT NO. ORIGIN DESTINATION CLEARED ROUTE BLOCK TIME FLIGHT TIME FUEL USED PILOT
2021-11-09UPS1109KMIA EHAM KMIA ALYRA ROWSY COACH WEAKK HARON WHOOS OOONN VIRST VEGAA ATUGI TILED DRYED NOVOK CARAC ELSIR 5050N 5240N 5330N 5320N MALOT GISTI DUB LIFFY IDEXA GINIS NATKO LYNAS ROLEX MALUD WAL MCT XAPOS NAPEX DOLAS ENITO DIBAL BUKUT LAMSO EHAM8.4 hrs8.1 hrs193,638 lbKevin Hall
2021-07-15UPS715SCEL KMIA SCEL DONTI BUXIS AKPOK MOPNU SIKAB SULNA LIVOR ISPEL SORTA MOXES ISREN TRU VAKUD EVRED GYV DALUD UGUPI BUXOS TORIL TBG ARNAL EMASA GCM ATUVI UCL XOPLI KELNI IKBIX PEAKY MTH KMIA8.3 hrs8 hrs186,769 lbKevin Hall
2021-07-13UPS713SBGR SCEL SBGR SOVSI ARULA PAMEX PULEN SOTSA KILIP SIKOB VUSDI TOLEM ROMUR OPTIR GEMOP CBA ALDEX KOPSI SOLER ROGOD UMKAL SCEL3.8 hrs3.6 hrs81,227 lbKevin Hall
2021-07-12UPS712MUHA SBGR MUHA DUTAN UCL UDNET IBSEN KATAL ALORA SIA KEMBO MLY KINOP EDROD ERIKO EDMOL TIPGA URIBI ANLIN MAR SIGAB IROSA BUTOL ISAGA BNS EDRIN AMAYA PAY SIMUR VUMPI BIVUT GIKRA KAMIR USVAK OREXO EDPEM USOBI LIXIP XOPEV KOKPA POSTU MOLKO TELOS ATF LOKEL OBGAT TONOR OPVEX POPTI SAMAR NEVTA BAG MOTVI RELUM RORIT ILTID ANDIV NEKAM KUGPO ASTOB UPONA IMBIS ISISA ENPEG PALCA ANSOK OBLUG CERVA ZARES EVRAL SBGR7.7 hrs7.5 hrs119,435 lbKevin Hall
2020-11-27KMIA MUHA KMIA JANSE RW061.2 hrs0.8 hrs0 lbken rose
2020-11-07UPS5X1117MMMX KMIA JODPO LECIT DVALL CURSO MNNDY JODPO BEETR GRITT RW092.7 hrs2.5 hrs55,674 lbKevin Hall
2020-11-07UPS5X1107KJFK MMMX 4.5 hrs4.1 hrs93,043 lbKevin Hall
2020-11-06UPS5X1106EBLG KJFK 7.6 hrs7.4 hrs174,586 lbKevin Hall
2020-10-09UPS1009LLBG EBLG LLBG SUVAS TEZAK USEBE OTHON VAXOS FOXLI RDS LARKI URNIL IKARO PIPEN MES NEMIS MOCNA LUPIS GIKAS DIKNI FSK DISOR SKJ LONTA DOLEV GORPA DOL ERKIR KOGOL KPT KUNOD TEDGO KOVAN SUNEG ABUKA RIDSU NONKO MISGI OLGIL SIPVU IDOVI ODVUX AGBUL LULAT TIPUT ROBON GESLO EBLG4.4 hrs4.3 hrs105,512 lbKevin Hall
2020-10-08UPS1008KJFK LLBG KJFK MERIT HFD PUT BOS TUSKY ALLRY 5150N 5240N 5430N 5420N DOGAL BEXET CON BOYNE LAMSO EVELI GMH DEXIT SASAL BABIT NISVA RODIP PIBOM IDILO BELGI CNK SUDES DUGLA NILER KULAR NESIL LAMSA EDISI TOMBI IDAKU PIKOG ZUKKO LLBG10 hrs9.7 hrs234,973 lbKevin Hall
2020-10-06UPS1006PANC KJFK PANC TED YESKA TMSON JAGIT YXY YQH 59N20 58N14 TULAG PETMA YQD POPLR KAIIN KALLU YRL RIONA YXL SSM CFNBP ULUTO CFRCC CFPWF MUSIT DUTEL PEPLA PIKSA CFSKX HOZIR WOZEE HANKK BEEPS EXTOL MEMMS KODEY ARKKK RODYY YODAA IGN KJFK6.3 hrs6 hrs136,356 lbKevin Hall
2020-09-28UPS99RKSI PANC RKSI EGOBA 40E30 LAMKA BEMOR RUTAL OLUTA DITOR EMGOL BENOK PIRAL 54E50 LUTEG ATNAD OSBAT 60E70 RUSOR MUCLA ELBEF SQA PANC7.3 hrs7 hrs156,083 lbAnton Vind
2020-08-29UPS16OMDB RKSI OMDB IVURO SUTVO GOMTA TARBO MUNGA MIXOL VAXIM RASKI ANKOX KARKU EXOLU POSIN GIVEK PAPVO KAMLO ATMUV NITAG PALMU DADSO SEBMA JJS CEA SUMAG DAKID CTG CHILA 54LSO LSO LINSO GMA MAKUL GULOT IDPUG XSJ IGRID LXI ADBAG MEPAN BSE DUDIT LBN ATLAT BIPOP AVPAM GYA POU CON NOLON WYN NNX PLT SAGON NF XUVGI SHR TUPGA ELNEX TOL KAKIS NXD LURMA OLGAP JTN PUD IPRAG DUMET AKARA LAMEN SADLI PONIK NIRAT SAMLO SOSDO CJU LOSNI GUKSU KAMIT SAMUL MAKSA ATASO PEBRI GUNKU OLMEN RKSI10 hrs9.6 hrs248,314 lbAnton Vind
2020-08-22UPS22EDDK OMDB EDDK KUMIK BIGSU TESGA ESATI LOHRE OSBIT RASPU KOMIB SULUS LONLI KULOK ABERU OKG DONAD BALTU EROKA OKL LETNA BEKVI PEMUR DOBIL ETUDA RIBSI SOPAV PADKA LAVPI NOMIX USALO SKAVI XEVBA MOKMU GEVNA LUXAR ODRAP TEPNA IVF BUKOV DOBOK NETED KIV ANEDO DIGAM BOMKI NEVKA TUNSA ABRAN KUGOS SIN CRM GULRA INTAB ERN EVSAS BAYIR ULTED NARLI INLAP YKV LUMOM PAVOD ENEDA NOLTO KRD DAPEM NAGRO IMKEN KIXOB EGSIR RUBAK TOTNO DASDO LAGSA LAM KIS SIR TATLA VUTEB OMDB5.8 hrs5.5 hrs135,729 lbAnton Vind
2020-08-15UPS95PANC EDDK PANC TED GKN ORT TIBOY 66N30 68N21 70N11 72N01 7393N 7480N DAPAK 7460N 7340N 7020N 6610N SOSAR SUM FORTY ODMIX CUTEL BADGA ASKAM PELET GOLVO VENAS SOTUN LARDI TOPPA AMGOD MONIL PETIK PAM NYKER ELPAT ARNEM SONEB MEVEL DOMEG TUVTI GMH GETNI KOPAG EDDK8.9 hrs8.7 hrs218,872 lbAnton Vind